createdAt,value
2018-05-17T00:01:09.680Z,9.38
2018-05-17T00:03:37.940Z,9.43
2018-05-17T00:06:06.296Z,9.30
2018-05-17T00:08:34.610Z,9.88
2018-05-17T00:11:02.882Z,7.70
2018-05-17T00:13:31.533Z,8.10
2018-05-17T00:15:59.833Z,8.53
2018-05-17T00:18:28.115Z,8.67
2018-05-17T00:20:56.366Z,9.20
2018-05-17T00:23:24.681Z,9.70
2018-05-17T00:25:52.961Z,9.25
2018-05-17T00:28:21.497Z,8.80
2018-05-17T00:30:49.804Z,8.47
2018-05-17T00:33:18.089Z,9.30
2018-05-17T00:35:46.517Z,9.10
2018-05-17T00:38:15.743Z,9.15
2018-05-17T00:40:45.667Z,7.80
2018-05-17T00:43:13.957Z,9.20
2018-05-17T00:45:42.250Z,9.40
2018-05-17T00:48:10.527Z,8.68
2018-05-17T00:50:39.167Z,8.23
2018-05-17T00:53:20.078Z,9.90
2018-05-17T00:55:48.373Z,9.10
2018-05-17T00:58:16.802Z,8.50
2018-05-17T01:00:45.494Z,8.47
2018-05-17T01:03:13.915Z,8.45
2018-05-17T01:05:42.283Z,9.07
2018-05-17T01:08:11.290Z,9.30
2018-05-17T01:10:39.721Z,10.03
2018-05-17T01:13:07.997Z,9.60
2018-05-17T01:15:36.310Z,8.67
2018-05-17T01:18:05.614Z,9.80
2018-05-17T01:20:33.967Z,9.47
2018-05-17T01:23:02.270Z,9.93
2018-05-17T01:25:30.596Z,10.20
2018-05-17T01:27:59.323Z,9.80
2018-05-17T01:30:27.626Z,10.23
2018-05-17T01:32:55.906Z,10.00
2018-05-17T01:35:24.218Z,10.00
2018-05-17T01:38:04.192Z,10.00
2018-05-17T01:40:32.553Z,9.50
2018-05-17T01:43:01.259Z,10.77
2018-05-17T01:45:29.582Z,10.50
2018-05-17T01:47:57.990Z,11.17
2018-05-17T01:50:26.237Z,11.40
2018-05-17T01:52:54.562Z,11.07
2018-05-17T01:55:22.842Z,11.45
2018-05-17T01:57:51.186Z,11.40
2018-05-17T02:00:19.532Z,12.20
2018-05-17T02:02:47.842Z,11.40
2018-05-17T02:05:17.319Z,10.90
2018-05-17T02:07:45.638Z,12.30
2018-05-17T02:10:13.923Z,13.80
2018-05-17T02:12:42.257Z,15.40
2018-05-17T02:15:10.549Z,16.12
2018-05-17T02:17:38.867Z,18.43
2018-05-17T02:20:07.157Z,20.67
2018-05-17T02:22:35.488Z,20.20
2018-05-17T02:25:07.885Z,21.50
2018-05-17T02:27:36.341Z,22.80
2018-05-17T02:30:04.959Z,25.20
2018-05-17T02:32:40.564Z,24.90
2018-05-17T02:35:09.915Z,24.67
2018-05-17T02:37:43.731Z,25.00
2018-05-17T02:40:15.016Z,26.10
2018-05-17T02:42:43.875Z,27.10
2018-05-17T02:45:12.182Z,26.10
2018-05-17T02:47:42.166Z,28.80
2018-05-17T02:50:10.501Z,28.00
2018-05-17T02:52:38.856Z,28.70
2018-05-17T02:55:07.179Z,28.40
2018-05-17T02:57:35.508Z,29.23
2018-05-17T03:00:03.823Z,30.07
2018-05-17T03:02:32.192Z,29.73
2018-05-17T03:05:00.467Z,29.67
2018-05-17T03:07:28.761Z,29.87
2018-05-17T03:09:57.071Z,32.10
2018-05-17T03:12:25.380Z,32.60
2018-05-17T03:14:53.710Z,33.13
2018-05-17T03:17:21.997Z,32.22
2018-05-17T03:19:50.407Z,34.00
2018-05-17T03:22:18.718Z,33.15
2018-05-17T03:24:47.151Z,34.77
2018-05-17T03:27:15.453Z,33.28
2018-05-17T03:29:43.741Z,34.10
2018-05-17T03:32:12.109Z,35.33
2018-05-17T03:34:40.395Z,37.37
2018-05-17T03:37:08.706Z,37.97
2018-05-17T03:39:37.041Z,36.63
2018-05-17T03:42:05.406Z,39.60
2018-05-17T03:44:33.698Z,37.33
2018-05-17T03:47:01.996Z,36.80
2018-05-17T03:49:30.485Z,37.63
2018-05-17T03:51:58.827Z,37.33
2018-05-17T03:54:27.127Z,37.77
2018-05-17T03:56:55.476Z,35.57
2018-05-17T03:59:23.763Z,34.93
2018-05-17T04:02:03.841Z,34.77
2018-05-17T04:04:43.888Z,35.13
2018-05-17T04:07:12.773Z,34.83
2018-05-17T04:09:41.075Z,34.17
2018-05-17T04:12:09.418Z,32.38
2018-05-17T04:14:38.014Z,31.50
2018-05-17T04:17:06.381Z,32.50
2018-05-17T04:19:34.770Z,30.23
2018-05-17T04:22:03.337Z,30.03
2018-05-17T04:24:31.597Z,30.17
2018-05-17T04:27:00.003Z,29.67
2018-05-17T04:29:28.312Z,29.20
2018-05-17T04:31:56.650Z,28.83
2018-05-17T04:34:24.950Z,29.37
2018-05-17T04:36:53.306Z,27.07
2018-05-17T04:39:21.589Z,29.20
2018-05-17T04:41:49.894Z,25.73
2018-05-17T04:44:18.235Z,25.20
2018-05-17T04:46:46.799Z,41.43
2018-05-17T04:49:15.138Z,25.70
2018-05-17T04:51:43.464Z,26.67
2018-05-17T04:54:11.856Z,25.27
2018-05-17T04:56:40.164Z,25.63
2018-05-17T04:59:08.509Z,24.97
2018-05-17T05:01:36.792Z,25.30
2018-05-17T05:04:05.786Z,24.70
2018-05-17T05:06:34.059Z,25.50
2018-05-17T05:09:02.422Z,23.20
2018-05-17T05:11:30.715Z,23.00
2018-05-17T05:13:59.002Z,23.67
2018-05-17T05:16:27.363Z,23.50
2018-05-17T05:18:55.693Z,25.27
2018-05-17T05:21:25.130Z,22.87
2018-05-17T05:23:53.700Z,25.37
2018-05-17T05:26:22.023Z,25.47
2018-05-17T05:28:50.310Z,22.87
2018-05-17T05:31:18.631Z,24.63
2018-05-17T05:33:46.930Z,23.77
2018-05-17T05:36:15.247Z,23.95
2018-05-17T05:38:43.587Z,25.60
2018-05-17T05:41:11.958Z,23.85
2018-05-17T05:43:40.282Z,24.33
2018-05-17T05:46:09.096Z,25.25
2018-05-17T05:48:37.431Z,24.90
2018-05-17T05:51:05.698Z,23.17
2018-05-17T05:53:34.477Z,25.03
2018-05-17T05:56:02.807Z,25.83
2018-05-17T05:58:31.143Z,25.80
2018-05-17T06:00:59.452Z,26.70
2018-05-17T06:03:27.764Z,27.70
2018-05-17T06:05:56.298Z,27.30
2018-05-17T06:08:24.680Z,25.60
2018-05-17T06:10:53.095Z,27.90
2018-05-17T06:13:21.481Z,26.08
2018-05-17T06:15:49.749Z,26.30
2018-05-17T06:18:18.640Z,25.80
2018-05-17T06:20:46.935Z,25.00
2018-05-17T06:23:15.240Z,28.13
2018-05-17T06:25:45.447Z,26.67
2018-05-17T06:28:14.563Z,28.05
2018-05-17T06:30:42.870Z,26.70
2018-05-17T06:33:11.175Z,27.13
2018-05-17T06:35:39.554Z,29.10
2018-05-17T06:38:08.208Z,28.40
2018-05-17T06:40:36.509Z,26.87
2018-05-17T06:43:04.868Z,27.63
2018-05-17T06:45:34.904Z,27.33
2018-05-17T06:48:03.219Z,27.00
2018-05-17T06:50:31.741Z,29.40
2018-05-17T06:53:00.046Z,26.63
2018-05-17T06:55:28.500Z,27.30
2018-05-17T06:57:56.779Z,26.13
2018-05-17T07:00:25.131Z,27.00
2018-05-17T07:02:53.468Z,27.00
2018-05-17T07:05:21.812Z,27.15
2018-05-17T07:07:50.717Z,27.25
2018-05-17T07:10:19.576Z,27.07
2018-05-17T07:12:48.063Z,25.70
2018-05-17T07:15:16.384Z,25.97
2018-05-17T07:17:44.680Z,25.87
2018-05-17T07:20:13.928Z,25.60
2018-05-17T07:22:42.229Z,25.27
2018-05-17T07:25:10.619Z,25.55
2018-05-17T07:27:39.166Z,23.90
2018-05-17T07:30:07.457Z,24.87
2018-05-17T07:32:35.805Z,24.50
2018-05-17T07:35:04.109Z,24.47
2018-05-17T07:37:32.404Z,22.30
2018-05-17T07:40:00.768Z,23.17
2018-05-17T07:42:29.066Z,22.23
2018-05-17T07:44:57.338Z,21.23
2018-05-17T07:47:25.748Z,21.90
2018-05-17T07:49:54.293Z,22.60
2018-05-17T07:52:22.698Z,21.70
2018-05-17T07:54:51.067Z,22.37
2018-05-17T07:57:19.391Z,21.30
2018-05-17T07:59:48.608Z,20.20
2018-05-17T08:02:16.938Z,21.30
2018-05-17T08:04:45.286Z,21.93
2018-05-17T08:07:13.604Z,20.70
2018-05-17T08:09:43.087Z,19.13
2018-05-17T08:12:11.410Z,19.85
2018-05-17T08:14:39.787Z,19.33
2018-05-17T08:17:09.165Z,18.83
2018-05-17T08:19:37.493Z,19.17
2018-05-17T08:22:05.849Z,20.00
2018-05-17T08:24:34.388Z,20.70
2018-05-17T08:27:03.349Z,19.80
2018-05-17T08:29:32.197Z,19.30
2018-05-17T08:32:00.516Z,19.63
2018-05-17T08:34:28.932Z,19.80
2018-05-17T08:36:57.205Z,19.37
2018-05-17T08:39:25.528Z,19.40
2018-05-17T08:41:53.973Z,19.97
2018-05-17T08:44:22.320Z,18.63
2018-05-17T08:46:52.473Z,19.53
2018-05-17T08:49:20.769Z,19.58
2018-05-17T08:51:49.122Z,19.33
2018-05-17T08:54:17.435Z,18.77
2018-05-17T08:56:45.862Z,22.10
2018-05-17T08:59:14.569Z,18.27
2018-05-17T09:01:43.362Z,22.80
2018-05-17T09:04:11.718Z,20.50
2018-05-17T09:06:40.058Z,20.10
2018-05-17T09:09:08.565Z,18.90
2018-05-17T09:11:36.857Z,18.47
2018-05-17T09:17:06.213Z,17.98
2018-05-17T09:19:34.541Z,18.37
2018-05-17T09:22:02.891Z,18.63
2018-05-17T09:24:31.313Z,17.00
2018-05-17T09:27:00.565Z,17.60
2018-05-17T09:29:28.841Z,16.87
2018-05-17T09:31:57.292Z,15.70
2018-05-17T09:34:25.749Z,16.55
2018-05-17T09:36:54.190Z,17.77
2018-05-17T09:39:22.703Z,16.17
2018-05-17T09:41:51.083Z,16.80
2018-05-17T09:44:19.448Z,17.35
2018-05-17T09:46:49.255Z,19.27
2018-05-17T09:49:17.673Z,17.97
2018-05-17T09:51:45.960Z,17.25
2018-05-17T09:54:14.320Z,16.95
2018-05-17T09:56:42.645Z,15.38
2018-05-17T09:59:11.230Z,16.67
2018-05-17T10:01:39.532Z,13.10
2018-05-17T10:04:07.852Z,16.67
2018-05-17T10:06:36.147Z,16.13
2018-05-17T10:09:04.524Z,17.43
2018-05-17T10:11:32.835Z,16.03
2018-05-17T10:14:01.230Z,17.10
2018-05-17T10:16:29.515Z,16.53
2018-05-17T10:18:57.900Z,16.10
2018-05-17T10:21:26.178Z,17.57
2018-05-17T10:23:55.718Z,16.87
2018-05-17T10:26:24.268Z,15.90
2018-05-17T10:28:52.589Z,16.13
2018-05-17T10:31:21.003Z,17.40
2018-05-17T10:33:49.286Z,18.00
2018-05-17T10:36:17.610Z,16.73
2018-05-17T10:38:45.920Z,17.50
2018-05-17T10:41:14.247Z,17.23
2018-05-17T10:43:42.533Z,16.60
2018-05-17T10:46:10.870Z,17.30
2018-05-17T10:48:39.179Z,16.67
2018-05-17T10:51:07.525Z,16.37
2018-05-17T10:53:35.929Z,17.33
2018-05-17T10:56:05.458Z,15.80
2018-05-17T10:58:33.750Z,16.90
2018-05-17T11:01:02.141Z,15.73
2018-05-17T11:03:30.722Z,16.17
2018-05-17T11:05:59.118Z,15.90
2018-05-17T11:08:27.413Z,18.70
2018-05-17T11:10:57.754Z,17.63
2018-05-17T11:13:27.533Z,17.63
2018-05-17T11:15:56.446Z,20.27
2018-05-17T11:18:26.954Z,20.10
2018-05-17T11:20:56.109Z,19.77
2018-05-17T11:23:24.468Z,20.27
2018-05-17T11:25:53.350Z,19.97
2018-05-17T11:28:21.775Z,18.63
2018-05-17T11:30:50.055Z,19.87
2018-05-17T11:33:18.511Z,20.47
2018-05-17T11:35:46.846Z,20.77
2018-05-17T11:38:15.341Z,17.83
2018-05-17T11:40:43.595Z,17.70
2018-05-17T11:43:12.925Z,17.77
2018-05-17T11:45:41.359Z,18.07
2018-05-17T11:48:09.697Z,18.10
2018-05-17T11:50:38.019Z,17.10
2018-05-17T11:53:06.370Z,22.33
2018-05-17T11:55:34.750Z,17.20
2018-05-17T11:58:03.070Z,17.83
2018-05-17T12:00:31.372Z,17.00
2018-05-17T12:02:59.831Z,16.77
2018-05-17T12:05:28.162Z,18.97
2018-05-17T12:07:56.650Z,16.20
2018-05-17T12:10:25.636Z,16.00
2018-05-17T12:12:53.957Z,16.40
2018-05-17T12:15:22.290Z,15.25
2018-05-17T12:17:50.702Z,16.40
2018-05-17T12:20:19.064Z,16.20
2018-05-17T12:22:47.339Z,16.50
2018-05-17T12:25:16.939Z,16.33
2018-05-17T12:27:48.406Z,15.20
2018-05-17T12:30:17.447Z,15.93
2018-05-17T12:32:46.191Z,16.07
2018-05-17T12:35:14.563Z,15.47
2018-05-17T12:37:42.948Z,15.30
2018-05-17T12:40:11.981Z,17.47
2018-05-17T12:42:40.365Z,15.10
2018-05-17T12:45:08.699Z,15.87
2018-05-17T12:47:37.155Z,17.37
2018-05-17T12:50:06.407Z,19.93
2018-05-17T12:52:35.660Z,19.50
2018-05-17T12:55:03.976Z,19.10
2018-05-17T12:57:32.314Z,16.23
2018-05-17T13:00:00.647Z,21.17
2018-05-17T13:02:29.010Z,17.70
2018-05-17T13:04:57.361Z,17.20
2018-05-17T13:07:25.685Z,16.87
2018-05-17T13:09:54.224Z,17.60
2018-05-17T13:12:22.575Z,17.55
2018-05-17T13:14:51.656Z,17.43
2018-05-17T13:17:20.381Z,17.27
2018-05-17T13:19:49.461Z,14.57
2018-05-17T13:22:17.820Z,15.07
2018-05-17T13:24:47.098Z,14.18
2018-05-17T13:27:15.583Z,14.13
2018-05-17T13:29:43.923Z,13.47
2018-05-17T13:32:12.334Z,12.32
2018-05-17T13:34:40.776Z,11.30
2018-05-17T13:37:09.088Z,10.00
2018-05-17T13:39:37.436Z,12.40
2018-05-17T13:42:05.765Z,10.30
2018-05-17T13:44:34.325Z,9.03
2018-05-17T13:47:02.605Z,10.50
2018-05-17T13:49:32.386Z,11.27
2018-05-17T13:52:00.722Z,14.67
2018-05-17T13:54:29.116Z,12.90
2018-05-17T13:56:58.045Z,11.70
2018-05-17T13:59:26.470Z,11.47
2018-05-17T14:01:54.774Z,11.87
2018-05-17T14:04:23.109Z,12.40
2018-05-17T14:06:51.359Z,13.87
2018-05-17T14:09:19.670Z,14.93
2018-05-17T14:11:48.017Z,15.93
2018-05-17T14:14:16.381Z,17.25
2018-05-17T14:16:44.863Z,17.13
2018-05-17T14:19:13.162Z,18.07
2018-05-17T14:21:41.529Z,18.27
2018-05-17T14:24:10.126Z,18.68
2018-05-17T14:26:39.428Z,17.60
2018-05-17T14:29:07.825Z,18.55
2018-05-17T14:31:36.202Z,17.70
2018-05-17T14:34:04.952Z,20.20
2018-05-17T14:36:33.307Z,21.97
2018-05-17T14:39:01.721Z,19.20
2018-05-17T14:41:30.107Z,17.20
2018-05-17T14:43:58.394Z,19.63
2018-05-17T14:46:26.861Z,12.97
2018-05-17T14:48:55.180Z,15.13
2018-05-17T14:51:23.534Z,16.23
2018-05-17T14:53:51.985Z,13.90
2018-05-17T14:56:20.339Z,13.45
2018-05-17T14:58:49.586Z,13.10
2018-05-17T15:01:18.028Z,12.83
2018-05-17T15:03:46.245Z,11.77
2018-05-17T15:06:14.761Z,12.40
2018-05-17T15:08:43.239Z,11.00
2018-05-17T15:11:14.756Z,10.80
2018-05-17T15:13:39.814Z,14.93
2018-05-17T15:16:08.711Z,11.33
2018-05-17T15:18:36.987Z,11.97
2018-05-17T15:21:05.726Z,9.95
2018-05-17T15:23:34.082Z,13.03
2018-05-17T15:26:02.367Z,10.20
2018-05-17T15:28:30.689Z,9.30
2018-05-17T15:30:58.997Z,9.37
2018-05-17T15:33:27.281Z,9.90
2018-05-17T15:35:55.592Z,10.00
2018-05-17T15:38:24.142Z,10.37
2018-05-17T15:40:52.543Z,10.20
2018-05-17T15:43:20.854Z,10.10
2018-05-17T15:45:49.251Z,9.07
2018-05-17T15:48:18.576Z,8.73
2018-05-17T15:50:46.827Z,9.10
2018-05-17T15:53:15.260Z,8.73
2018-05-17T15:55:44.032Z,9.23
2018-05-17T15:58:13.891Z,8.70
2018-05-17T16:00:42.360Z,9.40
2018-05-17T16:03:10.707Z,8.50
2018-05-17T16:05:39.347Z,8.70
2018-05-17T16:08:08.004Z,8.17
2018-05-17T16:10:38.441Z,8.93
2018-05-17T16:13:06.823Z,9.10
2018-05-17T16:15:35.450Z,9.40
2018-05-17T16:18:04.748Z,8.00
2018-05-17T16:20:37.704Z,9.30
2018-05-17T16:23:06.724Z,8.43
2018-05-17T16:25:35.346Z,7.97
2018-05-17T16:28:03.832Z,8.03
2018-05-17T16:30:32.171Z,8.67
2018-05-17T16:33:02.167Z,9.27
2018-05-17T16:35:30.832Z,9.20
2018-05-17T16:38:03.024Z,9.13
2018-05-17T16:40:31.595Z,10.63
2018-05-17T16:43:08.454Z,9.03
2018-05-17T16:45:37.252Z,9.77
2018-05-17T16:48:06.487Z,11.50
2018-05-17T16:50:37.513Z,12.00
2018-05-17T16:53:07.751Z,10.17
2018-05-17T16:55:41.429Z,11.30
2018-05-17T16:58:11.793Z,9.60
2018-05-17T17:00:45.032Z,11.40
2018-05-17T17:03:15.587Z,10.73
2018-05-17T17:05:52.775Z,11.10
2018-05-17T17:08:28.837Z,11.90
2018-05-17T17:13:38.200Z,16.87
2018-05-17T17:16:07.083Z,16.93
2018-05-17T17:18:37.303Z,11.40
2018-05-17T17:21:05.964Z,17.97
2018-05-17T17:23:34.853Z,20.17
2018-05-17T17:26:03.372Z,10.00
2018-05-17T17:28:32.081Z,15.67
2018-05-17T17:31:00.465Z,11.77
2018-05-17T17:33:28.672Z,11.63
2018-05-17T17:35:57.153Z,9.70
2018-05-17T17:38:25.558Z,9.73
2018-05-17T17:40:53.977Z,8.70
2018-05-17T17:43:22.292Z,7.47
2018-05-17T17:45:50.627Z,6.80
2018-05-17T17:48:18.947Z,9.60
2018-05-17T17:50:47.279Z,8.10
2018-05-17T17:53:15.629Z,8.13
2018-05-17T17:55:44.824Z,10.00
2018-05-17T17:58:13.125Z,7.62
2018-05-17T18:00:41.699Z,9.73
2018-05-17T18:03:10.028Z,9.73
2018-05-17T18:05:38.423Z,7.10
2018-05-17T18:08:06.699Z,7.20
2018-05-17T18:10:35.061Z,6.70
2018-05-17T18:13:04.082Z,10.93
2018-05-17T18:15:32.871Z,7.20
2018-05-17T18:18:02.082Z,6.83
2018-05-17T18:20:34.130Z,6.30
2018-05-17T18:23:04.494Z,9.50
2018-05-17T18:25:35.722Z,8.83
2018-05-17T18:28:05.319Z,11.77
2018-05-17T18:30:33.837Z,9.83
2018-05-17T18:33:06.283Z,8.50
2018-05-17T18:35:34.886Z,7.23
2018-05-17T18:38:03.613Z,7.40
2018-05-17T18:40:32.648Z,4.57
2018-05-17T18:43:01.191Z,5.50
2018-05-17T18:45:29.529Z,8.97
2018-05-17T18:47:57.997Z,8.57
2018-05-17T18:50:30.142Z,7.07
2018-05-17T18:53:01.440Z,7.20
2018-05-17T18:55:35.501Z,5.90
2018-05-17T18:58:04.803Z,6.68
2018-05-17T19:00:33.182Z,6.93
2018-05-17T19:03:01.658Z,5.30
2018-05-17T19:05:31.732Z,6.00
2018-05-17T19:08:00.190Z,8.53
2018-05-17T19:10:29.493Z,10.30
2018-05-17T19:12:57.892Z,10.20
2018-05-17T19:15:26.276Z,5.80
2018-05-17T19:17:54.945Z,10.67
2018-05-17T19:20:23.501Z,5.85
2018-05-17T19:22:51.811Z,6.97
2018-05-17T19:25:20.197Z,5.73
2018-05-17T19:27:48.698Z,6.13
2018-05-17T19:30:18.091Z,7.28
2018-05-17T19:32:46.586Z,7.83
2018-05-17T19:35:14.919Z,8.85
2018-05-17T19:37:44.312Z,9.95
2018-05-17T19:40:13.292Z,8.00
2018-05-17T19:42:41.643Z,6.87
2018-05-17T19:45:11.170Z,7.87
2018-05-17T19:47:39.540Z,8.50
2018-05-17T19:50:09.321Z,11.37
2018-05-17T19:52:38.234Z,6.23
2018-05-17T19:55:06.663Z,9.00
2018-05-17T19:57:35.279Z,8.17
2018-05-17T20:00:06.300Z,6.57
2018-05-17T20:02:37.403Z,5.90
2018-05-17T20:05:06.376Z,6.80
2018-05-17T20:07:34.680Z,5.93
2018-05-17T20:10:03.418Z,6.00
2018-05-17T20:12:32.416Z,5.63
2018-05-17T20:15:02.498Z,5.33
2018-05-17T20:17:39.870Z,4.40
2018-05-17T20:20:12.414Z,5.17
2018-05-17T20:22:42.213Z,5.20
2018-05-17T20:25:11.157Z,4.63
2018-05-17T20:27:39.841Z,5.50
2018-05-17T20:30:08.716Z,5.33
2018-05-17T20:32:39.584Z,5.10
2018-05-17T20:35:07.946Z,4.83
2018-05-17T20:37:37.154Z,5.53
2018-05-17T20:40:05.589Z,4.73
2018-05-17T20:42:34.062Z,5.50
2018-05-17T20:45:02.388Z,5.50
2018-05-17T20:47:32.407Z,6.20
2018-05-17T20:50:01.010Z,5.20
2018-05-17T20:52:29.867Z,5.40
2018-05-17T20:54:58.309Z,5.30
2018-05-17T20:57:27.007Z,5.13
2018-05-17T20:59:55.283Z,6.23
2018-05-17T21:02:23.870Z,5.40
2018-05-17T21:04:52.220Z,5.90
2018-05-17T21:07:23.068Z,5.30
2018-05-17T21:09:51.505Z,5.20
2018-05-17T21:12:20.189Z,5.50
2018-05-17T21:14:48.567Z,5.50
2018-05-17T21:17:16.855Z,7.40
2018-05-17T21:19:45.883Z,5.70
2018-05-17T21:22:14.228Z,5.35
2018-05-17T21:24:42.611Z,5.65
2018-05-17T21:27:11.003Z,6.12
2018-05-17T21:29:39.239Z,5.80
2018-05-17T21:32:07.711Z,5.50
2018-05-17T21:34:37.248Z,5.93
2018-05-17T21:37:05.614Z,5.27
2018-05-17T21:39:34.431Z,5.37
2018-05-17T21:42:02.657Z,6.13
2018-05-17T21:44:31.021Z,5.72
2018-05-17T21:46:59.331Z,5.90
2018-05-17T21:49:27.832Z,5.50
2018-05-17T21:51:56.440Z,5.37
2018-05-17T21:54:25.730Z,4.60
2018-05-17T21:56:54.015Z,6.23
2018-05-17T21:59:22.310Z,6.07
2018-05-17T22:01:50.721Z,6.43
2018-05-17T22:04:19.071Z,5.75
2018-05-17T22:06:48.467Z,4.93
2018-05-17T22:09:17.974Z,5.00
2018-05-17T22:11:48.721Z,5.50
2018-05-17T22:14:17.039Z,5.35
2018-05-17T22:16:46.164Z,5.60
2018-05-17T22:19:14.544Z,5.30
2018-05-17T22:21:44.356Z,5.43
2018-05-17T22:24:12.769Z,5.73
2018-05-17T22:26:41.195Z,5.33
2018-05-17T22:29:09.594Z,6.00
2018-05-17T22:31:38.182Z,4.67
2018-05-17T22:34:06.695Z,5.40
2018-05-17T22:36:35.050Z,4.70
2018-05-17T22:39:03.310Z,5.30
2018-05-17T22:41:31.684Z,5.23
2018-05-17T22:44:00.084Z,4.37
2018-05-17T22:46:28.665Z,6.13
2018-05-17T22:48:56.969Z,5.10
2018-05-17T22:51:25.392Z,6.00
2018-05-17T22:53:54.551Z,5.70
2018-05-17T22:56:34.474Z,4.32
2018-05-17T22:59:03.770Z,5.30
2018-05-17T23:01:32.068Z,5.40
2018-05-17T23:04:00.735Z,5.37
2018-05-17T23:06:29.110Z,5.40
2018-05-17T23:08:58.775Z,4.50
2018-05-17T23:11:27.091Z,5.00
2018-05-17T23:13:55.505Z,4.97
2018-05-17T23:16:23.846Z,4.93
2018-05-17T23:18:52.325Z,5.20
2018-05-17T23:21:20.944Z,5.10
2018-05-17T23:23:49.411Z,5.60
2018-05-17T23:26:17.769Z,5.00
2018-05-17T23:28:46.059Z,4.83
2018-05-17T23:31:15.072Z,5.77
2018-05-17T23:33:43.407Z,5.97
2018-05-17T23:36:11.734Z,5.00
2018-05-17T23:38:40.077Z,4.53
2018-05-17T23:44:17.507Z,5.07
2018-05-17T23:46:46.279Z,5.07
2018-05-17T23:49:14.581Z,4.12
2018-05-17T23:51:42.948Z,4.55
2018-05-17T23:54:11.331Z,4.55
2018-05-17T23:56:39.619Z,4.60
2018-05-17T23:59:07.967Z,5.17
